sensor_id;sensor_type;location;lat;lon;timestamp;P1;durP1;ratioP1;P2;durP2;ratioP2
55063;SDS011;40963;52.168;21.296;2022-08-20T00:00:10;9.00;;;5.18;;
55063;SDS011;40963;52.168;21.296;2022-08-20T00:02:49;10.07;;;5.15;;
55063;SDS011;40963;52.168;21.296;2022-08-20T00:06:02;7.97;;;4.90;;
55063;SDS011;40963;52.168;21.296;2022-08-20T00:08:09;18.67;;;5.40;;
55063;SDS011;40963;52.168;21.296;2022-08-20T00:10:36;13.00;;;5.53;;
55063;SDS011;40963;52.168;21.296;2022-08-20T00:13:05;7.95;;;5.35;;
55063;SDS011;40963;52.168;21.296;2022-08-20T00:15:33;22.60;;;6.43;;
55063;SDS011;40963;52.168;21.296;2022-08-20T00:18:00;11.27;;;5.65;;
55063;SDS011;40963;52.168;21.296;2022-08-20T00:20:27;13.18;;;5.93;;
55063;SDS011;40963;52.168;21.296;2022-08-20T00:22:55;18.10;;;5.43;;
55063;SDS011;40963;52.168;21.296;2022-08-20T00:25:22;14.88;;;5.88;;
55063;SDS011;40963;52.168;21.296;2022-08-20T00:27:48;18.48;;;6.03;;
55063;SDS011;40963;52.168;21.296;2022-08-20T00:30:14;23.42;;;7.20;;
55063;SDS011;40963;52.168;21.296;2022-08-20T00:32:44;15.75;;;6.72;;
55063;SDS011;40963;52.168;21.296;2022-08-20T00:35:20;12.52;;;6.28;;
55063;SDS011;40963;52.168;21.296;2022-08-20T00:37:48;9.30;;;5.80;;
55063;SDS011;40963;52.168;21.296;2022-08-20T00:40:16;10.95;;;6.05;;
55063;SDS011;40963;52.168;21.296;2022-08-20T00:42:46;8.77;;;5.78;;
55063;SDS011;40963;52.168;21.296;2022-08-20T00:45:14;10.55;;;5.05;;
55063;SDS011;40963;52.168;21.296;2022-08-20T00:47:42;7.97;;;5.88;;
55063;SDS011;40963;52.168;21.296;2022-08-20T00:50:09;15.32;;;5.65;;
55063;SDS011;40963;52.168;21.296;2022-08-20T00:52:36;12.35;;;5.75;;
55063;SDS011;40963;52.168;21.296;2022-08-20T00:55:06;13.10;;;5.97;;
55063;SDS011;40963;52.168;21.296;2022-08-20T00:57:37;7.55;;;5.97;;
55063;SDS011;40963;52.168;21.296;2022-08-20T01:00:09;11.85;;;5.75;;
55063;SDS011;40963;52.168;21.296;2022-08-20T01:02:46;12.15;;;6.38;;
55063;SDS011;40963;52.168;21.296;2022-08-20T01:05:12;12.52;;;5.90;;
55063;SDS011;40963;52.168;21.296;2022-08-20T01:07:38;13.60;;;6.25;;
55063;SDS011;40963;52.168;21.296;2022-08-20T01:10:10;13.55;;;6.13;;
55063;SDS011;40963;52.168;21.296;2022-08-20T01:12:39;12.30;;;6.10;;
55063;SDS011;40963;52.168;21.296;2022-08-20T01:15:07;8.82;;;5.88;;
55063;SDS011;40963;52.168;21.296;2022-08-20T01:17:38;9.20;;;6.45;;
55063;SDS011;40963;52.168;21.296;2022-08-20T01:20:11;12.70;;;6.18;;
55063;SDS011;40963;52.168;21.296;2022-08-20T01:31:01;11.07;;;6.32;;
55063;SDS011;40963;52.168;21.296;2022-08-20T01:33:28;19.00;;;6.10;;
55063;SDS011;40963;52.168;21.296;2022-08-20T01:35:56;12.60;;;6.07;;
55063;SDS011;40963;52.168;21.296;2022-08-20T01:38:22;12.30;;;6.55;;
55063;SDS011;40963;52.168;21.296;2022-08-20T01:41:09;11.65;;;6.15;;
55063;SDS011;40963;52.168;21.296;2022-08-20T01:43:46;17.30;;;6.78;;
55063;SDS011;40963;52.168;21.296;2022-08-20T01:46:13;15.32;;;6.20;;
55063;SDS011;40963;52.168;21.296;2022-08-20T01:48:40;8.75;;;6.88;;
55063;SDS011;40963;52.168;21.296;2022-08-20T01:51:08;17.33;;;6.55;;
55063;SDS011;40963;52.168;21.296;2022-08-20T01:53:41;19.85;;;7.30;;
55063;SDS011;40963;52.168;21.296;2022-08-20T01:56:11;9.98;;;6.35;;
55063;SDS011;40963;52.168;21.296;2022-08-20T01:58:40;10.07;;;6.18;;
55063;SDS011;40963;52.168;21.296;2022-08-20T02:01:16;17.67;;;6.78;;
55063;SDS011;40963;52.168;21.296;2022-08-20T02:03:54;11.52;;;6.50;;
55063;SDS011;40963;52.168;21.296;2022-08-20T02:06:21;14.02;;;6.68;;
55063;SDS011;40963;52.168;21.296;2022-08-20T02:08:51;12.40;;;6.75;;
55063;SDS011;40963;52.168;21.296;2022-08-20T02:11:20;14.38;;;6.45;;
55063;SDS011;40963;52.168;21.296;2022-08-20T02:13:47;16.27;;;6.95;;
55063;SDS011;40963;52.168;21.296;2022-08-20T02:16:17;13.82;;;6.85;;
55063;SDS011;40963;52.168;21.296;2022-08-20T02:18:57;12.00;;;6.85;;
55063;SDS011;40963;52.168;21.296;2022-08-20T02:21:33;15.90;;;6.82;;
55063;SDS011;40963;52.168;21.296;2022-08-20T02:24:01;13.25;;;7.32;;
55063;SDS011;40963;52.168;21.296;2022-08-20T02:26:28;16.95;;;7.03;;
55063;SDS011;40963;52.168;21.296;2022-08-20T02:28:54;8.65;;;6.80;;
55063;SDS011;40963;52.168;21.296;2022-08-20T02:31:21;15.15;;;7.18;;
55063;SDS011;40963;52.168;21.296;2022-08-20T02:33:47;17.33;;;6.85;;
55063;SDS011;40963;52.168;21.296;2022-08-20T02:36:14;19.10;;;7.18;;
55063;SDS011;40963;52.168;21.296;2022-08-20T02:38:43;9.93;;;7.00;;
55063;SDS011;40963;52.168;21.296;2022-08-20T02:41:09;16.13;;;7.53;;
55063;SDS011;40963;52.168;21.296;2022-08-20T02:43:36;12.77;;;7.10;;
55063;SDS011;40963;52.168;21.296;2022-08-20T02:46:02;11.40;;;7.80;;
55063;SDS011;40963;52.168;21.296;2022-08-20T02:48:30;12.73;;;7.78;;
55063;SDS011;40963;52.168;21.296;2022-08-20T02:51:01;12.25;;;7.28;;
55063;SDS011;40963;52.168;21.296;2022-08-20T02:53:29;14.90;;;7.55;;
55063;SDS011;40963;52.168;21.296;2022-08-20T02:55:57;21.20;;;7.88;;
55063;SDS011;40963;52.168;21.296;2022-08-20T02:58:23;15.20;;;6.93;;
55063;SDS011;40963;52.168;21.296;2022-08-20T03:00:49;16.40;;;6.65;;
55063;SDS011;40963;52.168;21.296;2022-08-20T03:03:15;12.07;;;6.80;;
55063;SDS011;40963;52.168;21.296;2022-08-20T03:05:47;11.27;;;7.47;;
55063;SDS011;40963;52.168;21.296;2022-08-20T03:08:14;16.45;;;7.78;;
55063;SDS011;40963;52.168;21.296;2022-08-20T03:10:42;19.88;;;7.28;;
55063;SDS011;40963;52.168;21.296;2022-08-20T03:13:09;13.10;;;6.90;;
55063;SDS011;40963;52.168;21.296;2022-08-20T03:15:36;9.68;;;6.60;;
55063;SDS011;40963;52.168;21.296;2022-08-20T03:18:03;16.95;;;6.78;;
55063;SDS011;40963;52.168;21.296;2022-08-20T03:20:29;14.05;;;7.78;;
55063;SDS011;40963;52.168;21.296;2022-08-20T03:22:55;18.10;;;7.00;;
55063;SDS011;40963;52.168;21.296;2022-08-20T03:25:21;12.88;;;6.90;;
55063;SDS011;40963;52.168;21.296;2022-08-20T03:27:47;13.15;;;7.30;;
55063;SDS011;40963;52.168;21.296;2022-08-20T03:30:14;11.13;;;6.88;;
55063;SDS011;40963;52.168;21.296;2022-08-20T03:32:40;10.70;;;7.40;;
55063;SDS011;40963;52.168;21.296;2022-08-20T03:35:07;10.60;;;6.75;;
55063;SDS011;40963;52.168;21.296;2022-08-20T03:37:36;14.57;;;7.43;;
55063;SDS011;40963;52.168;21.296;2022-08-20T03:40:03;24.13;;;7.18;;
55063;SDS011;40963;52.168;21.296;2022-08-20T03:42:30;19.88;;;7.38;;
55063;SDS011;40963;52.168;21.296;2022-08-20T03:44:56;22.33;;;8.25;;
55063;SDS011;40963;52.168;21.296;2022-08-20T03:47:22;11.85;;;7.47;;
55063;SDS011;40963;52.168;21.296;2022-08-20T03:49:48;21.42;;;7.60;;
55063;SDS011;40963;52.168;21.296;2022-08-20T03:52:14;13.10;;;7.80;;
55063;SDS011;40963;52.168;21.296;2022-08-20T03:54:41;19.38;;;7.55;;
55063;SDS011;40963;52.168;21.296;2022-08-20T03:57:11;12.27;;;7.97;;
55063;SDS011;40963;52.168;21.296;2022-08-20T03:59:38;13.30;;;7.40;;
55063;SDS011;40963;52.168;21.296;2022-08-20T04:02:05;12.00;;;7.63;;
55063;SDS011;40963;52.168;21.296;2022-08-20T04:04:30;13.48;;;8.57;;
55063;SDS011;40963;52.168;21.296;2022-08-20T04:06:56;17.40;;;9.07;;
55063;SDS011;40963;52.168;21.296;2022-08-20T04:09:22;15.48;;;7.88;;
55063;SDS011;40963;52.168;21.296;2022-08-20T04:11:48;14.73;;;8.05;;
55063;SDS011;40963;52.168;21.296;2022-08-20T04:14:14;15.25;;;7.53;;
55063;SDS011;40963;52.168;21.296;2022-08-20T04:16:39;13.73;;;7.78;;
55063;SDS011;40963;52.168;21.296;2022-08-20T04:19:05;14.38;;;7.53;;
55063;SDS011;40963;52.168;21.296;2022-08-20T04:21:32;12.73;;;8.00;;
55063;SDS011;40963;52.168;21.296;2022-08-20T04:24:00;18.73;;;8.23;;
55063;SDS011;40963;52.168;21.296;2022-08-20T04:26:26;13.63;;;7.65;;
55063;SDS011;40963;52.168;21.296;2022-08-20T04:28:52;18.70;;;7.93;;
55063;SDS011;40963;52.168;21.296;2022-08-20T04:31:19;13.50;;;7.55;;
55063;SDS011;40963;52.168;21.296;2022-08-20T04:33:48;23.38;;;7.95;;
55063;SDS011;40963;52.168;21.296;2022-08-20T04:36:14;14.30;;;8.05;;
55063;SDS011;40963;52.168;21.296;2022-08-20T04:38:40;20.35;;;7.50;;
55063;SDS011;40963;52.168;21.296;2022-08-20T04:41:05;14.48;;;7.45;;
55063;SDS011;40963;52.168;21.296;2022-08-20T04:43:32;12.52;;;7.72;;
55063;SDS011;40963;52.168;21.296;2022-08-20T04:46:01;11.68;;;7.18;;
55063;SDS011;40963;52.168;21.296;2022-08-20T04:48:29;16.02;;;8.30;;
55063;SDS011;40963;52.168;21.296;2022-08-20T04:50:56;16.77;;;8.05;;
55063;SDS011;40963;52.168;21.296;2022-08-20T04:53:23;14.38;;;7.65;;
55063;SDS011;40963;52.168;21.296;2022-08-20T04:55:50;19.30;;;8.48;;
55063;SDS011;40963;52.168;21.296;2022-08-20T04:58:19;12.88;;;7.88;;
55063;SDS011;40963;52.168;21.296;2022-08-20T05:00:52;17.98;;;7.82;;
55063;SDS011;40963;52.168;21.296;2022-08-20T05:03:21;13.52;;;7.80;;
55063;SDS011;40963;52.168;21.296;2022-08-20T05:05:47;15.85;;;8.10;;
55063;SDS011;40963;52.168;21.296;2022-08-20T05:08:14;14.18;;;8.10;;
55063;SDS011;40963;52.168;21.296;2022-08-20T05:10:42;14.50;;;7.45;;
55063;SDS011;40963;52.168;21.296;2022-08-20T05:13:08;14.88;;;7.70;;
55063;SDS011;40963;52.168;21.296;2022-08-20T05:15:34;22.60;;;7.68;;
55063;SDS011;40963;52.168;21.296;2022-08-20T05:18:02;14.65;;;7.72;;
55063;SDS011;40963;52.168;21.296;2022-08-20T05:20:32;11.35;;;8.02;;
55063;SDS011;40963;52.168;21.296;2022-08-20T05:23:02;18.05;;;7.53;;
55063;SDS011;40963;52.168;21.296;2022-08-20T05:25:28;12.40;;;7.95;;
55063;SDS011;40963;52.168;21.296;2022-08-20T05:27:58;14.95;;;7.75;;
55063;SDS011;40963;52.168;21.296;2022-08-20T05:30:33;13.25;;;7.50;;
55063;SDS011;40963;52.168;21.296;2022-08-20T05:33:10;12.73;;;7.63;;
55063;SDS011;40963;52.168;21.296;2022-08-20T05:35:38;15.77;;;7.70;;
55063;SDS011;40963;52.168;21.296;2022-08-20T05:38:05;12.50;;;7.55;;
55063;SDS011;40963;52.168;21.296;2022-08-20T05:40:32;18.05;;;8.05;;
55063;SDS011;40963;52.168;21.296;2022-08-20T05:42:59;15.35;;;8.43;;
55063;SDS011;40963;52.168;21.296;2022-08-20T05:45:25;15.57;;;7.63;;
55063;SDS011;40963;52.168;21.296;2022-08-20T05:47:50;26.27;;;8.25;;
55063;SDS011;40963;52.168;21.296;2022-08-20T05:50:16;14.18;;;7.70;;
55063;SDS011;40963;52.168;21.296;2022-08-20T05:52:42;12.07;;;8.18;;
55063;SDS011;40963;52.168;21.296;2022-08-20T05:55:09;15.52;;;8.00;;
55063;SDS011;40963;52.168;21.296;2022-08-20T05:57:37;16.90;;;8.27;;
55063;SDS011;40963;52.168;21.296;2022-08-20T06:00:05;14.15;;;8.00;;
55063;SDS011;40963;52.168;21.296;2022-08-20T06:02:34;22.23;;;7.88;;
55063;SDS011;40963;52.168;21.296;2022-08-20T06:05:18;14.02;;;7.47;;
55063;SDS011;40963;52.168;21.296;2022-08-20T06:07:45;14.07;;;7.43;;
55063;SDS011;40963;52.168;21.296;2022-08-20T06:10:11;12.90;;;7.80;;
55063;SDS011;40963;52.168;21.296;2022-08-20T06:12:37;13.52;;;7.72;;
55063;SDS011;40963;52.168;21.296;2022-08-20T06:15:06;13.40;;;8.50;;
55063;SDS011;40963;52.168;21.296;2022-08-20T06:17:32;14.18;;;7.90;;
55063;SDS011;40963;52.168;21.296;2022-08-20T06:19:58;15.35;;;8.63;;
55063;SDS011;40963;52.168;21.296;2022-08-20T06:22:33;17.38;;;7.80;;
55063;SDS011;40963;52.168;21.296;2022-08-20T06:24:59;15.20;;;7.97;;
55063;SDS011;40963;52.168;21.296;2022-08-20T06:27:25;15.73;;;8.13;;
55063;SDS011;40963;52.168;21.296;2022-08-20T06:29:52;16.30;;;8.35;;
55063;SDS011;40963;52.168;21.296;2022-08-20T06:32:18;14.18;;;8.07;;
55063;SDS011;40963;52.168;21.296;2022-08-20T06:34:46;12.00;;;7.60;;
55063;SDS011;40963;52.168;21.296;2022-08-20T06:37:16;14.95;;;7.60;;
55063;SDS011;40963;52.168;21.296;2022-08-20T06:39:44;15.82;;;7.70;;
55063;SDS011;40963;52.168;21.296;2022-08-20T06:42:10;17.98;;;7.97;;
55063;SDS011;40963;52.168;21.296;2022-08-20T06:44:36;18.45;;;7.93;;
55063;SDS011;40963;52.168;21.296;2022-08-20T06:47:02;17.80;;;8.18;;
55063;SDS011;40963;52.168;21.296;2022-08-20T06:49:29;14.85;;;7.55;;
55063;SDS011;40963;52.168;21.296;2022-08-20T06:51:57;12.52;;;7.72;;
55063;SDS011;40963;52.168;21.296;2022-08-20T06:54:23;17.98;;;7.72;;
55063;SDS011;40963;52.168;21.296;2022-08-20T06:56:49;15.13;;;7.28;;
55063;SDS011;40963;52.168;21.296;2022-08-20T06:59:18;22.27;;;7.38;;
55063;SDS011;40963;52.168;21.296;2022-08-20T07:01:43;18.38;;;7.80;;
55063;SDS011;40963;52.168;21.296;2022-08-20T07:04:09;17.92;;;8.40;;
55063;SDS011;40963;52.168;21.296;2022-08-20T07:06:34;9.52;;;7.22;;
55063;SDS011;40963;52.168;21.296;2022-08-20T07:09:00;16.98;;;7.90;;
55063;SDS011;40963;52.168;21.296;2022-08-20T07:11:26;15.57;;;7.97;;
55063;SDS011;40963;52.168;21.296;2022-08-20T07:13:52;22.92;;;8.98;;
55063;SDS011;40963;52.168;21.296;2022-08-20T07:16:17;9.48;;;7.65;;
55063;SDS011;40963;52.168;21.296;2022-08-20T07:18:43;15.40;;;7.93;;
55063;SDS011;40963;52.168;21.296;2022-08-20T07:21:09;16.27;;;8.07;;
55063;SDS011;40963;52.168;21.296;2022-08-20T07:23:36;17.98;;;8.45;;
55063;SDS011;40963;52.168;21.296;2022-08-20T07:26:02;18.50;;;8.23;;
55063;SDS011;40963;52.168;21.296;2022-08-20T07:28:28;25.00;;;8.20;;
55063;SDS011;40963;52.168;21.296;2022-08-20T07:30:55;17.05;;;8.43;;
55063;SDS011;40963;52.168;21.296;2022-08-20T07:33:40;14.13;;;8.40;;
55063;SDS011;40963;52.168;21.296;2022-08-20T07:36:06;14.88;;;8.73;;
55063;SDS011;40963;52.168;21.296;2022-08-20T07:38:33;11.38;;;7.20;;
55063;SDS011;40963;52.168;21.296;2022-08-20T07:41:03;17.73;;;8.15;;
55063;SDS011;40963;52.168;21.296;2022-08-20T07:43:37;13.48;;;7.95;;
55063;SDS011;40963;52.168;21.296;2022-08-20T07:46:03;22.85;;;8.20;;
55063;SDS011;40963;52.168;21.296;2022-08-20T07:48:33;28.85;;;8.52;;
55063;SDS011;40963;52.168;21.296;2022-08-20T07:51:06;15.63;;;8.20;;
55063;SDS011;40963;52.168;21.296;2022-08-20T07:53:35;16.00;;;8.02;;
55063;SDS011;40963;52.168;21.296;2022-08-20T07:56:03;13.93;;;7.78;;
55063;SDS011;40963;52.168;21.296;2022-08-20T07:58:32;14.95;;;7.63;;
55063;SDS011;40963;52.168;21.296;2022-08-20T08:01:00;11.60;;;7.32;;
55063;SDS011;40963;52.168;21.296;2022-08-20T08:03:26;14.95;;;7.90;;
55063;SDS011;40963;52.168;21.296;2022-08-20T08:05:53;12.30;;;7.70;;
55063;SDS011;40963;52.168;21.296;2022-08-20T08:08:21;17.55;;;7.93;;
55063;SDS011;40963;52.168;21.296;2022-08-20T08:10:51;19.55;;;7.93;;
55063;SDS011;40963;52.168;21.296;2022-08-20T08:13:21;18.98;;;7.18;;
55063;SDS011;40963;52.168;21.296;2022-08-20T08:15:50;21.40;;;7.43;;
55063;SDS011;40963;52.168;21.296;2022-08-20T08:18:22;21.67;;;7.10;;
55063;SDS011;40963;52.168;21.296;2022-08-20T08:20:50;17.83;;;7.32;;
55063;SDS011;40963;52.168;21.296;2022-08-20T08:23:18;12.95;;;6.68;;
55063;SDS011;40963;52.168;21.296;2022-08-20T08:25:48;14.07;;;7.13;;
55063;SDS011;40963;52.168;21.296;2022-08-20T08:28:17;19.25;;;7.22;;
55063;SDS011;40963;52.168;21.296;2022-08-20T08:30:44;13.23;;;7.28;;
55063;SDS011;40963;52.168;21.296;2022-08-20T08:33:20;12.43;;;6.93;;
55063;SDS011;40963;52.168;21.296;2022-08-20T08:35:58;14.02;;;6.82;;
55063;SDS011;40963;52.168;21.296;2022-08-20T08:38:32;10.13;;;6.10;;
55063;SDS011;40963;52.168;21.296;2022-08-20T08:41:05;9.02;;;6.18;;
55063;SDS011;40963;52.168;21.296;2022-08-20T08:43:32;13.50;;;6.63;;
55063;SDS011;40963;52.168;21.296;2022-08-20T08:46:02;16.40;;;6.40;;
55063;SDS011;40963;52.168;21.296;2022-08-20T08:48:33;14.40;;;6.70;;
55063;SDS011;40963;52.168;21.296;2022-08-20T08:51:01;13.68;;;6.50;;
55063;SDS011;40963;52.168;21.296;2022-08-20T08:53:36;13.43;;;6.95;;
55063;SDS011;40963;52.168;21.296;2022-08-20T08:56:10;15.27;;;6.50;;
55063;SDS011;40963;52.168;21.296;2022-08-20T08:58:38;10.73;;;5.97;;
55063;SDS011;40963;52.168;21.296;2022-08-20T09:01:09;11.88;;;6.13;;
55063;SDS011;40963;52.168;21.296;2022-08-20T09:03:39;14.00;;;6.17;;
55063;SDS011;40963;52.168;21.296;2022-08-20T09:06:11;11.27;;;5.32;;
55063;SDS011;40963;52.168;21.296;2022-08-20T09:08:44;27.42;;;5.60;;
55063;SDS011;40963;52.168;21.296;2022-08-20T09:11:12;17.52;;;5.80;;
55063;SDS011;40963;52.168;21.296;2022-08-20T09:13:38;15.52;;;5.28;;
55063;SDS011;40963;52.168;21.296;2022-08-20T09:16:04;18.05;;;5.55;;
55063;SDS011;40963;52.168;21.296;2022-08-20T09:18:30;25.38;;;5.68;;
55063;SDS011;40963;52.168;21.296;2022-08-20T09:20:56;30.02;;;5.63;;
55063;SDS011;40963;52.168;21.296;2022-08-20T09:23:22;17.00;;;6.00;;
55063;SDS011;40963;52.168;21.296;2022-08-20T09:25:48;11.48;;;5.60;;
55063;SDS011;40963;52.168;21.296;2022-08-20T09:28:14;12.07;;;5.90;;
55063;SDS011;40963;52.168;21.296;2022-08-20T09:30:40;5.93;;;5.28;;
55063;SDS011;40963;52.168;21.296;2022-08-20T09:33:05;12.35;;;5.65;;
55063;SDS011;40963;52.168;21.296;2022-08-20T09:35:31;19.00;;;5.97;;
55063;SDS011;40963;52.168;21.296;2022-08-20T09:37:58;14.50;;;5.95;;
55063;SDS011;40963;52.168;21.296;2022-08-20T09:40:24;9.65;;;4.90;;
55063;SDS011;40963;52.168;21.296;2022-08-20T09:42:50;14.68;;;5.43;;
55063;SDS011;40963;52.168;21.296;2022-08-20T09:45:16;14.38;;;4.80;;
55063;SDS011;40963;52.168;21.296;2022-08-20T09:47:42;19.85;;;5.28;;
55063;SDS011;40963;52.168;21.296;2022-08-20T09:50:08;12.55;;;5.72;;
55063;SDS011;40963;52.168;21.296;2022-08-20T09:52:35;11.18;;;5.32;;
55063;SDS011;40963;52.168;21.296;2022-08-20T09:55:19;14.38;;;5.53;;
55063;SDS011;40963;52.168;21.296;2022-08-20T09:57:50;29.35;;;5.75;;
55063;SDS011;40963;52.168;21.296;2022-08-20T10:00:16;14.85;;;5.60;;
55063;SDS011;40963;52.168;21.296;2022-08-20T10:02:43;17.02;;;5.38;;
55063;SDS011;40963;52.168;21.296;2022-08-20T10:05:09;14.68;;;6.07;;
55063;SDS011;40963;52.168;21.296;2022-08-20T10:07:36;8.45;;;5.68;;
55063;SDS011;40963;52.168;21.296;2022-08-20T10:10:04;19.80;;;5.63;;
55063;SDS011;40963;52.168;21.296;2022-08-20T10:12:30;8.43;;;5.05;;
55063;SDS011;40963;52.168;21.296;2022-08-20T10:14:56;11.23;;;5.20;;
55063;SDS011;40963;52.168;21.296;2022-08-20T10:17:22;12.20;;;5.25;;
55063;SDS011;40963;52.168;21.296;2022-08-20T10:19:48;10.40;;;4.88;;
55063;SDS011;40963;52.168;21.296;2022-08-20T10:22:13;15.07;;;5.10;;
55063;SDS011;40963;52.168;21.296;2022-08-20T10:24:39;14.90;;;5.15;;
55063;SDS011;40963;52.168;21.296;2022-08-20T10:27:06;12.38;;;4.50;;
55063;SDS011;40963;52.168;21.296;2022-08-20T10:29:32;10.73;;;4.72;;
55063;SDS011;40963;52.168;21.296;2022-08-20T10:32:02;12.85;;;4.82;;
55063;SDS011;40963;52.168;21.296;2022-08-20T10:34:37;8.43;;;4.97;;
55063;SDS011;40963;52.168;21.296;2022-08-20T10:37:04;21.15;;;4.78;;
55063;SDS011;40963;52.168;21.296;2022-08-20T10:39:30;10.63;;;4.55;;
55063;SDS011;40963;52.168;21.296;2022-08-20T10:41:56;12.77;;;4.95;;
55063;SDS011;40963;52.168;21.296;2022-08-20T10:44:22;10.95;;;5.10;;
55063;SDS011;40963;52.168;21.296;2022-08-20T10:46:47;5.63;;;4.68;;
55063;SDS011;40963;52.168;21.296;2022-08-20T10:49:13;10.95;;;5.50;;
55063;SDS011;40963;52.168;21.296;2022-08-20T10:51:38;14.20;;;4.95;;
55063;SDS011;40963;52.168;21.296;2022-08-20T10:54:04;11.30;;;5.40;;
55063;SDS011;40963;52.168;21.296;2022-08-20T10:56:30;10.93;;;4.68;;
55063;SDS011;40963;52.168;21.296;2022-08-20T10:58:55;15.07;;;5.22;;
55063;SDS011;40963;52.168;21.296;2022-08-20T11:01:21;11.95;;;5.03;;
55063;SDS011;40963;52.168;21.296;2022-08-20T11:03:47;10.63;;;5.00;;
55063;SDS011;40963;52.168;21.296;2022-08-20T11:06:13;9.07;;;4.78;;
55063;SDS011;40963;52.168;21.296;2022-08-20T11:08:38;19.63;;;5.55;;
55063;SDS011;40963;52.168;21.296;2022-08-20T11:11:04;13.85;;;5.57;;
55063;SDS011;40963;52.168;21.296;2022-08-20T11:13:34;17.33;;;5.18;;
55063;SDS011;40963;52.168;21.296;2022-08-20T11:16:00;13.98;;;5.07;;
55063;SDS011;40963;52.168;21.296;2022-08-20T11:18:27;13.05;;;5.47;;
55063;SDS011;40963;52.168;21.296;2022-08-20T11:20:54;20.45;;;6.05;;
55063;SDS011;40963;52.168;21.296;2022-08-20T11:23:20;15.93;;;5.50;;
55063;SDS011;40963;52.168;21.296;2022-08-20T11:25:46;14.05;;;5.50;;
55063;SDS011;40963;52.168;21.296;2022-08-20T11:28:12;13.00;;;5.00;;
55063;SDS011;40963;52.168;21.296;2022-08-20T11:30:38;8.93;;;4.78;;
55063;SDS011;40963;52.168;21.296;2022-08-20T11:33:04;10.30;;;5.30;;
55063;SDS011;40963;52.168;21.296;2022-08-20T11:35:31;13.23;;;5.20;;
55063;SDS011;40963;52.168;21.296;2022-08-20T11:37:59;13.48;;;4.80;;
55063;SDS011;40963;52.168;21.296;2022-08-20T11:40:25;15.27;;;5.28;;
55063;SDS011;40963;52.168;21.296;2022-08-20T11:42:52;14.35;;;5.70;;
55063;SDS011;40963;52.168;21.296;2022-08-20T11:45:17;17.75;;;5.50;;
55063;SDS011;40963;52.168;21.296;2022-08-20T11:47:43;12.43;;;5.43;;
55063;SDS011;40963;52.168;21.296;2022-08-20T11:50:10;11.18;;;5.25;;
55063;SDS011;40963;52.168;21.296;2022-08-20T11:52:38;13.40;;;4.60;;
55063;SDS011;40963;52.168;21.296;2022-08-20T11:55:05;11.48;;;4.57;;
55063;SDS011;40963;52.168;21.296;2022-08-20T11:57:34;11.07;;;5.00;;
55063;SDS011;40963;52.168;21.296;2022-08-20T12:00:02;13.00;;;5.40;;
55063;SDS011;40963;52.168;21.296;2022-08-20T12:02:34;7.57;;;4.50;;
55063;SDS011;40963;52.168;21.296;2022-08-20T12:05:00;13.40;;;5.35;;
55063;SDS011;40963;52.168;21.296;2022-08-20T12:07:25;12.00;;;5.35;;
55063;SDS011;40963;52.168;21.296;2022-08-20T12:09:51;14.43;;;5.20;;
55063;SDS011;40963;52.168;21.296;2022-08-20T12:12:18;13.50;;;4.70;;
55063;SDS011;40963;52.168;21.296;2022-08-20T12:14:47;11.20;;;5.10;;
55063;SDS011;40963;52.168;21.296;2022-08-20T12:17:14;15.98;;;5.28;;
55063;SDS011;40963;52.168;21.296;2022-08-20T12:19:47;8.70;;;4.68;;
55063;SDS011;40963;52.168;21.296;2022-08-20T12:22:14;16.20;;;4.78;;
55063;SDS011;40963;52.168;21.296;2022-08-20T12:24:40;11.85;;;4.90;;
55063;SDS011;40963;52.168;21.296;2022-08-20T12:27:17;7.47;;;4.70;;
55063;SDS011;40963;52.168;21.296;2022-08-20T12:29:45;10.90;;;4.60;;
55063;SDS011;40963;52.168;21.296;2022-08-20T12:32:13;16.38;;;4.78;;
55063;SDS011;40963;52.168;21.296;2022-08-20T12:34:40;12.85;;;5.00;;
55063;SDS011;40963;52.168;21.296;2022-08-20T12:37:11;12.20;;;5.30;;
55063;SDS011;40963;52.168;21.296;2022-08-20T12:39:40;9.60;;;4.70;;
55063;SDS011;40963;52.168;21.296;2022-08-20T12:42:07;12.82;;;5.18;;
55063;SDS011;40963;52.168;21.296;2022-08-20T12:44:34;16.05;;;5.13;;
55063;SDS011;40963;52.168;21.296;2022-08-20T12:47:09;18.50;;;4.70;;
55063;SDS011;40963;52.168;21.296;2022-08-20T12:49:37;12.30;;;4.30;;
55063;SDS011;40963;52.168;21.296;2022-08-20T12:52:06;7.40;;;3.95;;
55063;SDS011;40963;52.168;21.296;2022-08-20T12:54:32;13.88;;;5.13;;
55063;SDS011;40963;52.168;21.296;2022-08-20T12:56:58;11.85;;;4.47;;
55063;SDS011;40963;52.168;21.296;2022-08-20T12:59:24;17.83;;;4.57;;
55063;SDS011;40963;52.168;21.296;2022-08-20T13:01:51;20.02;;;4.30;;
55063;SDS011;40963;52.168;21.296;2022-08-20T13:04:17;14.35;;;4.93;;
55063;SDS011;40963;52.168;21.296;2022-08-20T13:06:43;20.77;;;4.70;;
55063;SDS011;40963;52.168;21.296;2022-08-20T13:09:09;9.98;;;4.63;;
55063;SDS011;40963;52.168;21.296;2022-08-20T13:11:35;11.85;;;5.18;;
55063;SDS011;40963;52.168;21.296;2022-08-20T13:14:00;14.93;;;4.53;;
55063;SDS011;40963;52.168;21.296;2022-08-20T13:16:26;10.30;;;4.38;;
55063;SDS011;40963;52.168;21.296;2022-08-20T13:18:52;5.68;;;4.00;;
55063;SDS011;40963;52.168;21.296;2022-08-20T13:21:17;13.05;;;4.07;;
55063;SDS011;40963;52.168;21.296;2022-08-20T13:23:43;9.10;;;4.75;;
55063;SDS011;40963;52.168;21.296;2022-08-20T13:26:08;14.43;;;5.25;;
55063;SDS011;40963;52.168;21.296;2022-08-20T13:28:34;12.90;;;4.90;;
55063;SDS011;40963;52.168;21.296;2022-08-20T13:31:00;24.45;;;5.47;;
55063;SDS011;40963;52.168;21.296;2022-08-20T13:33:26;15.18;;;4.25;;
55063;SDS011;40963;52.168;21.296;2022-08-20T13:35:53;17.10;;;5.05;;
55063;SDS011;40963;52.168;21.296;2022-08-20T13:38:19;10.82;;;4.43;;
55063;SDS011;40963;52.168;21.296;2022-08-20T13:40:44;19.92;;;4.55;;
55063;SDS011;40963;52.168;21.296;2022-08-20T13:43:10;15.88;;;4.80;;
55063;SDS011;40963;52.168;21.296;2022-08-20T13:45:36;15.35;;;4.75;;
55063;SDS011;40963;52.168;21.296;2022-08-20T13:48:03;12.68;;;4.80;;
55063;SDS011;40963;52.168;21.296;2022-08-20T13:50:30;15.50;;;5.05;;
55063;SDS011;40963;52.168;21.296;2022-08-20T13:52:55;11.82;;;4.82;;
55063;SDS011;40963;52.168;21.296;2022-08-20T13:55:21;8.13;;;4.45;;
55063;SDS011;40963;52.168;21.296;2022-08-20T13:57:49;14.85;;;4.43;;
55063;SDS011;40963;52.168;21.296;2022-08-20T14:00:26;10.82;;;4.50;;
55063;SDS011;40963;52.168;21.296;2022-08-20T14:02:53;10.77;;;4.47;;
55063;SDS011;40963;52.168;21.296;2022-08-20T14:05:19;16.98;;;4.30;;
55063;SDS011;40963;52.168;21.296;2022-08-20T14:07:45;12.43;;;4.47;;
55063;SDS011;40963;52.168;21.296;2022-08-20T14:10:14;17.60;;;4.25;;
55063;SDS011;40963;52.168;21.296;2022-08-20T14:12:46;13.20;;;4.83;;
55063;SDS011;40963;52.168;21.296;2022-08-20T14:15:12;7.57;;;4.40;;
55063;SDS011;40963;52.168;21.296;2022-08-20T14:17:40;10.85;;;4.75;;
55063;SDS011;40963;52.168;21.296;2022-08-20T14:20:14;10.40;;;4.22;;
55063;SDS011;40963;52.168;21.296;2022-08-20T14:22:42;12.60;;;4.88;;
55063;SDS011;40963;52.168;21.296;2022-08-20T14:25:08;7.15;;;4.70;;
55063;SDS011;40963;52.168;21.296;2022-08-20T14:27:35;9.77;;;4.00;;
55063;SDS011;40963;52.168;21.296;2022-08-20T14:30:03;12.70;;;4.88;;
55063;SDS011;40963;52.168;21.296;2022-08-20T14:32:30;15.75;;;4.70;;
55063;SDS011;40963;52.168;21.296;2022-08-20T14:34:56;11.75;;;4.60;;